sensor_id;sensor_type;location;lat;lon;timestamp;P1;durP1;ratioP1;P2;durP2;ratioP2
72920;SDS011;61064;51.654;5.476;2022-12-24T00:00:23;25.73;;;2.53;;
72920;SDS011;61064;51.654;5.476;2022-12-24T00:02:51;23.38;;;3.15;;
72920;SDS011;61064;51.654;5.476;2022-12-24T00:05:17;27.70;;;3.83;;
72920;SDS011;61064;51.654;5.476;2022-12-24T00:07:43;24.73;;;2.60;;
72920;SDS011;61064;51.654;5.476;2022-12-24T00:10:11;25.70;;;2.97;;
72920;SDS011;61064;51.654;5.476;2022-12-24T00:12:36;19.40;;;2.50;;
72920;SDS011;61064;51.654;5.476;2022-12-24T00:15:02;26.50;;;2.93;;
72920;SDS011;61064;51.654;5.476;2022-12-24T00:17:29;28.83;;;2.45;;
72920;SDS011;61064;51.654;5.476;2022-12-24T00:19:55;24.80;;;2.50;;
72920;SDS011;61064;51.654;5.476;2022-12-24T00:22:20;27.67;;;3.13;;
72920;SDS011;61064;51.654;5.476;2022-12-24T00:24:46;25.92;;;2.67;;
72920;SDS011;61064;51.654;5.476;2022-12-24T00:27:11;22.70;;;2.53;;
72920;SDS011;61064;51.654;5.476;2022-12-24T00:29:37;27.90;;;2.80;;
72920;SDS011;61064;51.654;5.476;2022-12-24T00:32:02;29.70;;;2.95;;
72920;SDS011;61064;51.654;5.476;2022-12-24T00:34:32;26.40;;;2.93;;
72920;SDS011;61064;51.654;5.476;2022-12-24T00:36:57;27.80;;;2.80;;
72920;SDS011;61064;51.654;5.476;2022-12-24T00:39:23;28.53;;;3.70;;
72920;SDS011;61064;51.654;5.476;2022-12-24T00:41:48;28.87;;;3.30;;
72920;SDS011;61064;51.654;5.476;2022-12-24T00:44:14;25.10;;;3.10;;
72920;SDS011;61064;51.654;5.476;2022-12-24T00:46:39;19.60;;;2.87;;
72920;SDS011;61064;51.654;5.476;2022-12-24T00:49:06;26.60;;;4.25;;
72920;SDS011;61064;51.654;5.476;2022-12-24T00:51:32;25.67;;;3.10;;
72920;SDS011;61064;51.654;5.476;2022-12-24T00:53:59;24.33;;;2.70;;
72920;SDS011;61064;51.654;5.476;2022-12-24T00:56:24;25.92;;;2.83;;
72920;SDS011;61064;51.654;5.476;2022-12-24T00:58:50;21.67;;;2.90;;
72920;SDS011;61064;51.654;5.476;2022-12-24T01:01:17;27.10;;;2.92;;
72920;SDS011;61064;51.654;5.476;2022-12-24T01:03:42;24.40;;;2.38;;
72920;SDS011;61064;51.654;5.476;2022-12-24T01:06:11;30.87;;;4.60;;
72920;SDS011;61064;51.654;5.476;2022-12-24T01:08:38;34.88;;;3.10;;
72920;SDS011;61064;51.654;5.476;2022-12-24T01:11:04;21.15;;;3.03;;
72920;SDS011;61064;51.654;5.476;2022-12-24T01:13:31;23.50;;;2.60;;
72920;SDS011;61064;51.654;5.476;2022-12-24T01:15:57;25.75;;;3.28;;
72920;SDS011;61064;51.654;5.476;2022-12-24T01:18:22;23.27;;;2.87;;
72920;SDS011;61064;51.654;5.476;2022-12-24T01:20:58;30.50;;;3.40;;
72920;SDS011;61064;51.654;5.476;2022-12-24T01:23:25;19.73;;;2.55;;
72920;SDS011;61064;51.654;5.476;2022-12-24T01:25:52;22.30;;;2.45;;
72920;SDS011;61064;51.654;5.476;2022-12-24T01:28:17;28.57;;;2.80;;
72920;SDS011;61064;51.654;5.476;2022-12-24T01:30:44;23.67;;;2.80;;
72920;SDS011;61064;51.654;5.476;2022-12-24T01:33:09;27.00;;;3.20;;
72920;SDS011;61064;51.654;5.476;2022-12-24T01:35:37;27.50;;;2.70;;
72920;SDS011;61064;51.654;5.476;2022-12-24T01:38:04;26.25;;;3.13;;
72920;SDS011;61064;51.654;5.476;2022-12-24T01:40:29;24.58;;;2.72;;
72920;SDS011;61064;51.654;5.476;2022-12-24T01:43:22;25.40;;;3.10;;
72920;SDS011;61064;51.654;5.476;2022-12-24T01:49:01;27.23;;;3.35;;
72920;SDS011;61064;51.654;5.476;2022-12-24T01:51:36;30.50;;;3.13;;
72920;SDS011;61064;51.654;5.476;2022-12-24T01:54:08;28.13;;;3.05;;
72920;SDS011;61064;51.654;5.476;2022-12-24T01:56:39;26.80;;;2.77;;
72920;SDS011;61064;51.654;5.476;2022-12-24T01:59:11;23.08;;;3.22;;
72920;SDS011;61064;51.654;5.476;2022-12-24T02:01:38;24.80;;;3.30;;
72920;SDS011;61064;51.654;5.476;2022-12-24T02:04:08;25.23;;;3.20;;
72920;SDS011;61064;51.654;5.476;2022-12-24T02:06:42;24.65;;;3.05;;
72920;SDS011;61064;51.654;5.476;2022-12-24T02:09:07;27.40;;;3.03;;
72920;SDS011;61064;51.654;5.476;2022-12-24T02:11:33;25.95;;;3.63;;
72920;SDS011;61064;51.654;5.476;2022-12-24T02:14:01;27.75;;;3.47;;
72920;SDS011;61064;51.654;5.476;2022-12-24T02:19:00;24.13;;;2.90;;
72920;SDS011;61064;51.654;5.476;2022-12-24T02:33:03;28.70;;;3.33;;
72920;SDS011;61064;51.654;5.476;2022-12-24T02:36:01;25.17;;;3.70;;
72920;SDS011;61064;51.654;5.476;2022-12-24T02:38:31;23.17;;;2.90;;
72920;SDS011;61064;51.654;5.476;2022-12-24T02:41:06;28.67;;;4.60;;
72920;SDS011;61064;51.654;5.476;2022-12-24T02:43:43;24.15;;;3.47;;
72920;SDS011;61064;51.654;5.476;2022-12-24T02:46:11;25.35;;;4.30;;
72920;SDS011;61064;51.654;5.476;2022-12-24T02:48:40;29.00;;;4.03;;
72920;SDS011;61064;51.654;5.476;2022-12-24T02:51:08;21.25;;;3.20;;
72920;SDS011;61064;51.654;5.476;2022-12-24T02:53:35;32.93;;;5.03;;
72920;SDS011;61064;51.654;5.476;2022-12-24T03:01:44;31.55;;;4.30;;
72920;SDS011;61064;51.654;5.476;2022-12-24T03:07:05;30.50;;;4.50;;
72920;SDS011;61064;51.654;5.476;2022-12-24T03:09:33;27.45;;;4.10;;
72920;SDS011;61064;51.654;5.476;2022-12-24T03:12:08;28.08;;;4.22;;
72920;SDS011;61064;51.654;5.476;2022-12-24T03:14:38;30.75;;;4.40;;
72920;SDS011;61064;51.654;5.476;2022-12-24T03:17:06;30.33;;;4.45;;
72920;SDS011;61064;51.654;5.476;2022-12-24T03:19:32;29.83;;;4.17;;
72920;SDS011;61064;51.654;5.476;2022-12-24T03:21:59;34.40;;;4.65;;
72920;SDS011;61064;51.654;5.476;2022-12-24T03:24:28;30.50;;;4.38;;
72920;SDS011;61064;51.654;5.476;2022-12-24T03:26:53;36.07;;;4.30;;
72920;SDS011;61064;51.654;5.476;2022-12-24T03:29:19;33.53;;;4.27;;
72920;SDS011;61064;51.654;5.476;2022-12-24T03:31:48;30.37;;;4.37;;
72920;SDS011;61064;51.654;5.476;2022-12-24T03:34:16;26.10;;;4.07;;
72920;SDS011;61064;51.654;5.476;2022-12-24T03:36:42;25.42;;;3.70;;
72920;SDS011;61064;51.654;5.476;2022-12-24T03:39:08;33.55;;;4.50;;
72920;SDS011;61064;51.654;5.476;2022-12-24T03:41:34;25.33;;;4.90;;
72920;SDS011;61064;51.654;5.476;2022-12-24T03:44:00;27.40;;;4.13;;
72920;SDS011;61064;51.654;5.476;2022-12-24T03:46:26;24.15;;;4.28;;
72920;SDS011;61064;51.654;5.476;2022-12-24T03:48:52;28.57;;;3.97;;
72920;SDS011;61064;51.654;5.476;2022-12-24T03:51:18;26.63;;;3.90;;
72920;SDS011;61064;51.654;5.476;2022-12-24T03:53:45;31.10;;;4.20;;
72920;SDS011;61064;51.654;5.476;2022-12-24T03:56:11;29.90;;;4.30;;
72920;SDS011;61064;51.654;5.476;2022-12-24T03:58:37;25.95;;;3.83;;
72920;SDS011;61064;51.654;5.476;2022-12-24T04:01:02;24.73;;;3.73;;
72920;SDS011;61064;51.654;5.476;2022-12-24T04:03:28;36.67;;;4.07;;
72920;SDS011;61064;51.654;5.476;2022-12-24T04:06:03;26.67;;;3.50;;
72920;SDS011;61064;51.654;5.476;2022-12-24T04:08:33;24.07;;;3.93;;
72920;SDS011;61064;51.654;5.476;2022-12-24T04:11:06;24.77;;;4.72;;
72920;SDS011;61064;51.654;5.476;2022-12-24T04:13:33;30.25;;;4.88;;
72920;SDS011;61064;51.654;5.476;2022-12-24T04:16:03;30.42;;;4.32;;
72920;SDS011;61064;51.654;5.476;2022-12-24T04:18:33;31.60;;;4.70;;
72920;SDS011;61064;51.654;5.476;2022-12-24T04:20:59;28.58;;;4.88;;
72920;SDS011;61064;51.654;5.476;2022-12-24T04:23:25;24.97;;;4.13;;
72920;SDS011;61064;51.654;5.476;2022-12-24T04:25:50;27.20;;;4.47;;
72920;SDS011;61064;51.654;5.476;2022-12-24T04:28:16;26.83;;;4.20;;
72920;SDS011;61064;51.654;5.476;2022-12-24T04:30:42;24.10;;;4.40;;
72920;SDS011;61064;51.654;5.476;2022-12-24T04:33:08;31.20;;;5.18;;
72920;SDS011;61064;51.654;5.476;2022-12-24T04:35:38;31.88;;;5.40;;
72920;SDS011;61064;51.654;5.476;2022-12-24T04:38:05;25.48;;;4.32;;
72920;SDS011;61064;51.654;5.476;2022-12-24T04:40:32;24.23;;;4.67;;
72920;SDS011;61064;51.654;5.476;2022-12-24T04:42:57;23.40;;;4.15;;
72920;SDS011;61064;51.654;5.476;2022-12-24T04:45:22;32.50;;;5.03;;
72920;SDS011;61064;51.654;5.476;2022-12-24T04:47:48;25.83;;;4.23;;
72920;SDS011;61064;51.654;5.476;2022-12-24T04:50:13;20.83;;;4.30;;
72920;SDS011;61064;51.654;5.476;2022-12-24T04:52:39;27.38;;;5.13;;
72920;SDS011;61064;51.654;5.476;2022-12-24T04:55:04;23.17;;;4.70;;
72920;SDS011;61064;51.654;5.476;2022-12-24T04:57:30;33.23;;;5.60;;
72920;SDS011;61064;51.654;5.476;2022-12-24T04:59:57;28.10;;;4.57;;
72920;SDS011;61064;51.654;5.476;2022-12-24T05:02:23;30.30;;;5.18;;
72920;SDS011;61064;51.654;5.476;2022-12-24T05:04:49;24.60;;;4.33;;
72920;SDS011;61064;51.654;5.476;2022-12-24T05:07:14;30.90;;;4.65;;
72920;SDS011;61064;51.654;5.476;2022-12-24T05:09:39;30.07;;;4.70;;
72920;SDS011;61064;51.654;5.476;2022-12-24T05:12:05;25.10;;;4.03;;
72920;SDS011;61064;51.654;5.476;2022-12-24T05:14:31;25.07;;;4.20;;
72920;SDS011;61064;51.654;5.476;2022-12-24T05:16:56;26.13;;;4.28;;
72920;SDS011;61064;51.654;5.476;2022-12-24T05:19:21;27.00;;;4.40;;
72920;SDS011;61064;51.654;5.476;2022-12-24T05:21:47;23.80;;;4.53;;
72920;SDS011;61064;51.654;5.476;2022-12-24T05:24:32;24.52;;;4.00;;
72920;SDS011;61064;51.654;5.476;2022-12-24T05:27:16;26.75;;;3.88;;
72920;SDS011;61064;51.654;5.476;2022-12-24T05:29:42;27.53;;;5.00;;
72920;SDS011;61064;51.654;5.476;2022-12-24T05:32:07;30.97;;;4.73;;
72920;SDS011;61064;51.654;5.476;2022-12-24T05:34:33;24.20;;;3.40;;
72920;SDS011;61064;51.654;5.476;2022-12-24T05:36:58;28.87;;;3.90;;
72920;SDS011;61064;51.654;5.476;2022-12-24T05:39:23;32.53;;;5.17;;
72920;SDS011;61064;51.654;5.476;2022-12-24T05:41:49;26.93;;;4.00;;
72920;SDS011;61064;51.654;5.476;2022-12-24T05:44:14;24.20;;;4.43;;
72920;SDS011;61064;51.654;5.476;2022-12-24T05:46:40;23.45;;;3.90;;
72920;SDS011;61064;51.654;5.476;2022-12-24T05:49:06;25.47;;;3.93;;
72920;SDS011;61064;51.654;5.476;2022-12-24T05:51:31;26.60;;;5.23;;
72920;SDS011;61064;51.654;5.476;2022-12-24T05:53:57;26.90;;;3.63;;
72920;SDS011;61064;51.654;5.476;2022-12-24T05:56:23;28.97;;;3.80;;
72920;SDS011;61064;51.654;5.476;2022-12-24T05:58:49;25.33;;;3.70;;
72920;SDS011;61064;51.654;5.476;2022-12-24T06:01:16;28.33;;;3.83;;
72920;SDS011;61064;51.654;5.476;2022-12-24T06:03:42;26.57;;;4.30;;
72920;SDS011;61064;51.654;5.476;2022-12-24T06:06:11;21.67;;;4.10;;
72920;SDS011;61064;51.654;5.476;2022-12-24T06:08:39;27.08;;;4.22;;
72920;SDS011;61064;51.654;5.476;2022-12-24T06:11:06;24.23;;;4.70;;
72920;SDS011;61064;51.654;5.476;2022-12-24T06:13:34;30.55;;;4.63;;
72920;SDS011;61064;51.654;5.476;2022-12-24T06:16:01;30.02;;;4.30;;
72920;SDS011;61064;51.654;5.476;2022-12-24T06:18:28;25.50;;;4.07;;
72920;SDS011;61064;51.654;5.476;2022-12-24T06:20:55;21.63;;;4.43;;
72920;SDS011;61064;51.654;5.476;2022-12-24T06:23:21;24.57;;;5.27;;
72920;SDS011;61064;51.654;5.476;2022-12-24T06:25:48;30.75;;;4.18;;
72920;SDS011;61064;51.654;5.476;2022-12-24T06:28:14;27.85;;;4.65;;
72920;SDS011;61064;51.654;5.476;2022-12-24T06:30:40;27.02;;;4.47;;
72920;SDS011;61064;51.654;5.476;2022-12-24T06:33:10;25.15;;;4.63;;
72920;SDS011;61064;51.654;5.476;2022-12-24T06:35:35;23.97;;;4.20;;
72920;SDS011;61064;51.654;5.476;2022-12-24T06:38:00;26.63;;;4.20;;
72920;SDS011;61064;51.654;5.476;2022-12-24T06:40:26;26.70;;;5.23;;
72920;SDS011;61064;51.654;5.476;2022-12-24T06:42:52;21.85;;;4.30;;
72920;SDS011;61064;51.654;5.476;2022-12-24T06:45:17;31.27;;;4.37;;
72920;SDS011;61064;51.654;5.476;2022-12-24T06:47:42;27.00;;;4.07;;
72920;SDS011;61064;51.654;5.476;2022-12-24T06:50:08;24.17;;;4.43;;
72920;SDS011;61064;51.654;5.476;2022-12-24T06:52:34;28.05;;;4.25;;
72920;SDS011;61064;51.654;5.476;2022-12-24T06:54:59;30.17;;;4.03;;
72920;SDS011;61064;51.654;5.476;2022-12-24T06:57:24;30.30;;;4.37;;
72920;SDS011;61064;51.654;5.476;2022-12-24T06:59:50;27.10;;;3.90;;
72920;SDS011;61064;51.654;5.476;2022-12-24T07:02:15;25.90;;;3.93;;
72920;SDS011;61064;51.654;5.476;2022-12-24T07:04:40;28.83;;;4.43;;
72920;SDS011;61064;51.654;5.476;2022-12-24T07:07:06;24.38;;;3.75;;
72920;SDS011;61064;51.654;5.476;2022-12-24T07:09:31;26.93;;;3.93;;
72920;SDS011;61064;51.654;5.476;2022-12-24T07:11:56;25.30;;;3.70;;
72920;SDS011;61064;51.654;5.476;2022-12-24T07:14:22;30.57;;;4.37;;
72920;SDS011;61064;51.654;5.476;2022-12-24T07:16:47;25.20;;;3.80;;
72920;SDS011;61064;51.654;5.476;2022-12-24T07:19:13;30.17;;;4.55;;
72920;SDS011;61064;51.654;5.476;2022-12-24T07:21:39;23.20;;;3.90;;
72920;SDS011;61064;51.654;5.476;2022-12-24T07:24:05;20.97;;;3.37;;
72920;SDS011;61064;51.654;5.476;2022-12-24T07:26:30;23.37;;;3.60;;
72920;SDS011;61064;51.654;5.476;2022-12-24T07:28:56;27.98;;;3.53;;
72920;SDS011;61064;51.654;5.476;2022-12-24T07:31:21;22.77;;;3.33;;
72920;SDS011;61064;51.654;5.476;2022-12-24T07:33:46;36.00;;;4.73;;
72920;SDS011;61064;51.654;5.476;2022-12-24T07:36:19;27.80;;;4.13;;
72920;SDS011;61064;51.654;5.476;2022-12-24T07:38:46;27.83;;;4.63;;
72920;SDS011;61064;51.654;5.476;2022-12-24T07:41:12;28.70;;;4.80;;
72920;SDS011;61064;51.654;5.476;2022-12-24T07:43:37;23.70;;;3.83;;
72920;SDS011;61064;51.654;5.476;2022-12-24T07:46:03;24.00;;;4.23;;
72920;SDS011;61064;51.654;5.476;2022-12-24T07:48:28;29.92;;;3.85;;
72920;SDS011;61064;51.654;5.476;2022-12-24T07:50:55;24.15;;;3.53;;
72920;SDS011;61064;51.654;5.476;2022-12-24T07:53:21;26.83;;;3.83;;
72920;SDS011;61064;51.654;5.476;2022-12-24T07:55:47;31.42;;;4.63;;
72920;SDS011;61064;51.654;5.476;2022-12-24T07:58:12;30.93;;;3.97;;
72920;SDS011;61064;51.654;5.476;2022-12-24T08:00:37;26.63;;;3.87;;
72920;SDS011;61064;51.654;5.476;2022-12-24T08:03:03;31.73;;;4.77;;
72920;SDS011;61064;51.654;5.476;2022-12-24T08:05:32;27.05;;;3.60;;
72920;SDS011;61064;51.654;5.476;2022-12-24T08:08:00;31.00;;;3.90;;
72920;SDS011;61064;51.654;5.476;2022-12-24T08:10:26;24.83;;;3.60;;
72920;SDS011;61064;51.654;5.476;2022-12-24T08:12:51;24.17;;;3.90;;
72920;SDS011;61064;51.654;5.476;2022-12-24T08:15:17;27.87;;;4.07;;
72920;SDS011;61064;51.654;5.476;2022-12-24T08:17:42;25.80;;;3.57;;
72920;SDS011;61064;51.654;5.476;2022-12-24T08:20:09;28.67;;;4.00;;
72920;SDS011;61064;51.654;5.476;2022-12-24T08:22:34;27.33;;;3.60;;
72920;SDS011;61064;51.654;5.476;2022-12-24T08:25:00;26.13;;;3.90;;
72920;SDS011;61064;51.654;5.476;2022-12-24T08:27:25;27.73;;;3.77;;
72920;SDS011;61064;51.654;5.476;2022-12-24T08:29:50;25.97;;;3.73;;
72920;SDS011;61064;51.654;5.476;2022-12-24T08:32:16;24.70;;;3.43;;
72920;SDS011;61064;51.654;5.476;2022-12-24T08:34:42;19.50;;;3.38;;
72920;SDS011;61064;51.654;5.476;2022-12-24T08:37:07;26.47;;;4.00;;
72920;SDS011;61064;51.654;5.476;2022-12-24T08:39:33;26.67;;;3.50;;
72920;SDS011;61064;51.654;5.476;2022-12-24T08:41:58;22.27;;;4.27;;
72920;SDS011;61064;51.654;5.476;2022-12-24T08:44:23;29.60;;;4.03;;
72920;SDS011;61064;51.654;5.476;2022-12-24T08:46:49;27.00;;;3.83;;
72920;SDS011;61064;51.654;5.476;2022-12-24T08:49:14;28.10;;;3.47;;
72920;SDS011;61064;51.654;5.476;2022-12-24T08:51:40;26.60;;;3.47;;
72920;SDS011;61064;51.654;5.476;2022-12-24T08:54:05;29.93;;;3.40;;
72920;SDS011;61064;51.654;5.476;2022-12-24T08:56:30;28.03;;;4.00;;
72920;SDS011;61064;51.654;5.476;2022-12-24T08:58:58;34.10;;;3.80;;
72920;SDS011;61064;51.654;5.476;2022-12-24T09:01:24;22.00;;;2.95;;
72920;SDS011;61064;51.654;5.476;2022-12-24T09:03:49;27.60;;;3.30;;
72920;SDS011;61064;51.654;5.476;2022-12-24T09:06:14;29.67;;;3.30;;
72920;SDS011;61064;51.654;5.476;2022-12-24T09:08:40;29.60;;;3.60;;
72920;SDS011;61064;51.654;5.476;2022-12-24T09:11:06;25.20;;;4.13;;
72920;SDS011;61064;51.654;5.476;2022-12-24T09:13:36;25.85;;;3.58;;
72920;SDS011;61064;51.654;5.476;2022-12-24T09:16:03;26.25;;;3.65;;
72920;SDS011;61064;51.654;5.476;2022-12-24T09:18:29;27.00;;;3.93;;
72920;SDS011;61064;51.654;5.476;2022-12-24T09:21:04;23.60;;;3.93;;
72920;SDS011;61064;51.654;5.476;2022-12-24T09:23:33;24.50;;;3.95;;
72920;SDS011;61064;51.654;5.476;2022-12-24T09:26:00;25.80;;;4.78;;
72920;SDS011;61064;51.654;5.476;2022-12-24T09:28:29;27.70;;;4.37;;
72920;SDS011;61064;51.654;5.476;2022-12-24T09:30:58;21.80;;;3.58;;
72920;SDS011;61064;51.654;5.476;2022-12-24T09:33:25;30.13;;;3.97;;
72920;SDS011;61064;51.654;5.476;2022-12-24T09:35:52;29.08;;;4.63;;
72920;SDS011;61064;51.654;5.476;2022-12-24T09:38:18;27.55;;;5.00;;
72920;SDS011;61064;51.654;5.476;2022-12-24T09:40:44;26.43;;;4.63;;
72920;SDS011;61064;51.654;5.476;2022-12-24T09:43:12;30.75;;;4.90;;
72920;SDS011;61064;51.654;5.476;2022-12-24T09:48:30;29.73;;;5.18;;
72920;SDS011;61064;51.654;5.476;2022-12-24T09:51:09;31.73;;;4.90;;
72920;SDS011;61064;51.654;5.476;2022-12-24T09:53:39;25.57;;;4.33;;
72920;SDS011;61064;51.654;5.476;2022-12-24T09:56:16;23.38;;;3.90;;
72920;SDS011;61064;51.654;5.476;2022-12-24T09:58:46;33.50;;;4.70;;
72920;SDS011;61064;51.654;5.476;2022-12-24T10:01:15;26.48;;;4.10;;
72920;SDS011;61064;51.654;5.476;2022-12-24T10:03:42;26.52;;;5.18;;
72920;SDS011;61064;51.654;5.476;2022-12-24T10:06:16;29.77;;;4.30;;
72920;SDS011;61064;51.654;5.476;2022-12-24T10:11:49;26.77;;;4.45;;
72920;SDS011;61064;51.654;5.476;2022-12-24T10:24:55;25.77;;;3.83;;
72920;SDS011;61064;51.654;5.476;2022-12-24T10:27:47;28.48;;;4.53;;
72920;SDS011;61064;51.654;5.476;2022-12-24T10:30:15;27.93;;;5.17;;
72920;SDS011;61064;51.654;5.476;2022-12-24T10:32:44;25.48;;;5.18;;
72920;SDS011;61064;51.654;5.476;2022-12-24T10:37:41;28.73;;;5.18;;
72920;SDS011;61064;51.654;5.476;2022-12-24T10:40:11;29.05;;;4.80;;
72920;SDS011;61064;51.654;5.476;2022-12-24T10:42:47;28.33;;;4.43;;
72920;SDS011;61064;51.654;5.476;2022-12-24T10:45:13;22.05;;;4.47;;
72920;SDS011;61064;51.654;5.476;2022-12-24T10:47:41;28.97;;;5.13;;
72920;SDS011;61064;51.654;5.476;2022-12-24T10:50:12;27.25;;;4.47;;
72920;SDS011;61064;51.654;5.476;2022-12-24T10:52:42;28.67;;;5.00;;
72920;SDS011;61064;51.654;5.476;2022-12-24T10:57:55;22.60;;;5.32;;
72920;SDS011;61064;51.654;5.476;2022-12-24T11:00:25;31.37;;;4.83;;
72920;SDS011;61064;51.654;5.476;2022-12-24T11:06:02;31.88;;;4.57;;
72920;SDS011;61064;51.654;5.476;2022-12-24T11:08:28;27.52;;;3.92;;
72920;SDS011;61064;51.654;5.476;2022-12-24T11:10:54;28.60;;;4.03;;
72920;SDS011;61064;51.654;5.476;2022-12-24T11:15:51;30.50;;;4.72;;
72920;SDS011;61064;51.654;5.476;2022-12-24T11:18:32;25.43;;;3.97;;
72920;SDS011;61064;51.654;5.476;2022-12-24T11:21:01;21.45;;;3.70;;
72920;SDS011;61064;51.654;5.476;2022-12-24T11:23:27;25.23;;;3.85;;
72920;SDS011;61064;51.654;5.476;2022-12-24T11:25:53;24.40;;;3.75;;
72920;SDS011;61064;51.654;5.476;2022-12-24T11:28:28;24.57;;;4.07;;
72920;SDS011;61064;51.654;5.476;2022-12-24T11:31:04;21.63;;;3.28;;
72920;SDS011;61064;51.654;5.476;2022-12-24T11:33:50;21.15;;;3.35;;
72920;SDS011;61064;51.654;5.476;2022-12-24T11:36:20;21.63;;;3.20;;
72920;SDS011;61064;51.654;5.476;2022-12-24T11:38:51;19.63;;;3.80;;
72920;SDS011;61064;51.654;5.476;2022-12-24T11:41:19;26.87;;;3.80;;
72920;SDS011;61064;51.654;5.476;2022-12-24T11:43:49;24.70;;;3.42;;
72920;SDS011;61064;51.654;5.476;2022-12-24T11:46:17;17.33;;;3.22;;
72920;SDS011;61064;51.654;5.476;2022-12-24T11:49:04;21.27;;;3.13;;
72920;SDS011;61064;51.654;5.476;2022-12-24T11:51:29;27.43;;;3.40;;
72920;SDS011;61064;51.654;5.476;2022-12-24T11:54:01;21.52;;;2.95;;
72920;SDS011;61064;51.654;5.476;2022-12-24T11:56:43;27.07;;;3.20;;
72920;SDS011;61064;51.654;5.476;2022-12-24T11:59:30;27.20;;;3.10;;
72920;SDS011;61064;51.654;5.476;2022-12-24T12:04:52;24.65;;;3.40;;
72920;SDS011;61064;51.654;5.476;2022-12-24T12:07:26;27.92;;;3.38;;
72920;SDS011;61064;51.654;5.476;2022-12-24T12:12:24;23.08;;;3.25;;
72920;SDS011;61064;51.654;5.476;2022-12-24T12:15:05;19.77;;;3.20;;
72920;SDS011;61064;51.654;5.476;2022-12-24T12:20:18;21.98;;;2.72;;
72920;SDS011;61064;51.654;5.476;2022-12-24T12:25:20;18.35;;;2.60;;
72920;SDS011;61064;51.654;5.476;2022-12-24T12:28:10;21.20;;;3.17;;
72920;SDS011;61064;51.654;5.476;2022-12-24T12:30:55;25.08;;;2.88;;
72920;SDS011;61064;51.654;5.476;2022-12-24T12:36:16;22.57;;;3.67;;
72920;SDS011;61064;51.654;5.476;2022-12-24T12:38:47;25.30;;;3.42;;
72920;SDS011;61064;51.654;5.476;2022-12-24T12:41:20;18.15;;;3.10;;
72920;SDS011;61064;51.654;5.476;2022-12-24T12:43:57;22.50;;;3.00;;
72920;SDS011;61064;51.654;5.476;2022-12-24T12:52:04;21.25;;;3.60;;
72920;SDS011;61064;51.654;5.476;2022-12-24T12:57:25;23.23;;;4.13;;
72920;SDS011;61064;51.654;5.476;2022-12-24T12:59:57;17.60;;;2.35;;
72920;SDS011;61064;51.654;5.476;2022-12-24T13:21:55;22.60;;;3.77;;
72920;SDS011;61064;51.654;5.476;2022-12-24T13:24:21;26.67;;;3.20;;
72920;SDS011;61064;51.654;5.476;2022-12-24T13:32:35;20.70;;;2.55;;
72920;SDS011;61064;51.654;5.476;2022-12-24T13:34:51;22.50;;;2.80;;
72920;SDS011;61064;51.654;5.476;2022-12-24T13:50:49;20.80;;;2.70;;
72920;SDS011;61064;51.654;5.476;2022-12-24T13:53:33;18.92;;;2.50;;
72920;SDS011;61064;51.654;5.476;2022-12-24T13:58:44;20.57;;;2.60;;
72920;SDS011;61064;51.654;5.476;2022-12-24T14:01:16;18.70;;;2.33;;
72920;SDS011;61064;51.654;5.476;2022-12-24T14:03:52;24.43;;;2.43;;
72920;SDS011;61064;51.654;5.476;2022-12-24T14:06:22;23.38;;;3.03;;
72920;SDS011;61064;51.654;5.476;2022-12-24T14:08:52;21.08;;;2.47;;
72920;SDS011;61064;51.654;5.476;2022-12-24T14:11:23;21.02;;;3.38;;
72920;SDS011;61064;51.654;5.476;2022-12-24T14:13:54;17.58;;;2.60;;
72920;SDS011;61064;51.654;5.476;2022-12-24T14:16:41;18.47;;;2.33;;
72920;SDS011;61064;51.654;5.476;2022-12-24T14:19:11;17.60;;;2.80;;
72920;SDS011;61064;51.654;5.476;2022-12-24T14:24:52;23.00;;;2.72;;
72920;SDS011;61064;51.654;5.476;2022-12-24T14:30:12;24.73;;;3.03;;
72920;SDS011;61064;51.654;5.476;2022-12-24T14:32:40;20.85;;;3.30;;
72920;SDS011;61064;51.654;5.476;2022-12-24T14:37:38;25.90;;;4.47;;
72920;SDS011;61064;51.654;5.476;2022-12-24T14:40:05;20.58;;;3.28;;
72920;SDS011;61064;51.654;5.476;2022-12-24T14:42:38;24.58;;;4.00;;
72920;SDS011;61064;51.654;5.476;2022-12-24T14:45:25;18.05;;;3.20;;
72920;SDS011;61064;51.654;5.476;2022-12-24T14:56:13;22.40;;;4.25;;
72920;SDS011;61064;51.654;5.476;2022-12-24T14:58:40;27.10;;;5.47;;
72920;SDS011;61064;51.654;5.476;2022-12-24T15:01:27;24.75;;;4.95;;
72920;SDS011;61064;51.654;5.476;2022-12-24T15:06:42;25.90;;;6.13;;
72920;SDS011;61064;51.654;5.476;2022-12-24T15:09:18;26.02;;;5.88;;
72920;SDS011;61064;51.654;5.476;2022-12-24T15:11:47;22.83;;;4.97;;
72920;SDS011;61064;51.654;5.476;2022-12-24T15:14:15;24.95;;;5.57;;
72920;SDS011;61064;51.654;5.476;2022-12-24T15:16:51;22.83;;;5.00;;
72920;SDS011;61064;51.654;5.476;2022-12-24T15:19:31;23.90;;;5.20;;
72920;SDS011;61064;51.654;5.476;2022-12-24T15:21:59;30.63;;;6.53;;
72920;SDS011;61064;51.654;5.476;2022-12-24T15:24:27;29.08;;;6.68;;
72920;SDS011;61064;51.654;5.476;2022-12-24T15:26:56;29.70;;;6.60;;
72920;SDS011;61064;51.654;5.476;2022-12-24T15:29:23;26.00;;;6.83;;
72920;SDS011;61064;51.654;5.476;2022-12-24T15:31:57;20.48;;;6.03;;
72920;SDS011;61064;51.654;5.476;2022-12-24T15:39:35;24.73;;;7.23;;
72920;SDS011;61064;51.654;5.476;2022-12-24T15:42:03;24.25;;;6.25;;
72920;SDS011;61064;51.654;5.476;2022-12-24T15:44:58;24.25;;;6.50;;
72920;SDS011;61064;51.654;5.476;2022-12-24T15:47:30;19.50;;;5.88;;
72920;SDS011;61064;51.654;5.476;2022-12-24T15:50:17;28.08;;;6.72;;
72920;SDS011;61064;51.654;5.476;2022-12-24T15:52:53;26.33;;;6.57;;
72920;SDS011;61064;51.654;5.476;2022-12-24T15:55:30;23.55;;;6.10;;
72920;SDS011;61064;51.654;5.476;2022-12-24T15:58:00;25.08;;;6.82;;
72920;SDS011;61064;51.654;5.476;2022-12-24T16:00:26;20.80;;;6.10;;
72920;SDS011;61064;51.654;5.476;2022-12-24T16:03:08;27.37;;;6.47;;
72920;SDS011;61064;51.654;5.476;2022-12-24T16:05:42;23.00;;;6.07;;
72920;SDS011;61064;51.654;5.476;2022-12-24T16:10:34;25.33;;;5.90;;
72920;SDS011;61064;51.654;5.476;2022-12-24T16:13:00;23.70;;;6.15;;
72920;SDS011;61064;51.654;5.476;2022-12-24T16:15:26;32.27;;;5.50;;
72920;SDS011;61064;51.654;5.476;2022-12-24T16:17:51;27.87;;;5.83;;
72920;SDS011;61064;51.654;5.476;2022-12-24T16:20:19;24.77;;;5.53;;
72920;SDS011;61064;51.654;5.476;2022-12-24T16:22:47;28.25;;;5.82;;
72920;SDS011;61064;51.654;5.476;2022-12-24T16:25:19;24.07;;;5.83;;
72920;SDS011;61064;51.654;5.476;2022-12-24T16:27:49;24.63;;;5.22;;
72920;SDS011;61064;51.654;5.476;2022-12-24T16:30:15;25.08;;;5.70;;
72920;SDS011;61064;51.654;5.476;2022-12-24T16:32:40;30.10;;;6.13;;
72920;SDS011;61064;51.654;5.476;2022-12-24T16:35:07;24.80;;;5.50;;
72920;SDS011;61064;51.654;5.476;2022-12-24T16:37:51;22.80;;;5.22;;
72920;SDS011;61064;51.654;5.476;2022-12-24T16:40:16;25.10;;;5.90;;
72920;SDS011;61064;51.654;5.476;2022-12-24T16:42:42;22.40;;;5.30;;
72920;SDS011;61064;51.654;5.476;2022-12-24T16:45:27;21.67;;;5.40;;
72920;SDS011;61064;51.654;5.476;2022-12-24T16:47:54;23.73;;;5.05;;
72920;SDS011;61064;51.654;5.476;2022-12-24T16:50:21;26.35;;;5.70;;
72920;SDS011;61064;51.654;5.476;2022-12-24T16:52:47;25.83;;;4.93;;
72920;SDS011;61064;51.654;5.476;2022-12-24T16:55:12;29.50;;;6.10;;
72920;SDS011;61064;51.654;5.476;2022-12-24T16:57:38;27.80;;;6.30;;
72920;SDS011;61064;51.654;5.476;2022-12-24T17:00:13;23.30;;;5.20;;
72920;SDS011;61064;51.654;5.476;2022-12-24T17:02:40;29.70;;;6.30;;
72920;SDS011;61064;51.654;5.476;2022-12-24T17:05:06;25.17;;;6.03;;